Time;durP1;ratioP1;P1;durP2;ratioP2;P2;SDS_P1;SDS_P2;PMS_P1;PMS_P2;Temp;Humidity;BMP_temperature;BMP_pressure;BME280_temperature;BME280_humidity;BME280_pressure;Samples;Min_cycle;Max_cycle;Signal;HPM_P1;HPM_P2
2023/08/20 00:01:24;;;;;;;9.23;8.47;;;;;;;26.91;50.04;99583.41;5012710;28;20248;-83
2023/08/20 00:03:52;;;;;;;8.63;8.13;;;;;;;26.96;50.70;99590.69;5012360;28;20226;-83
2023/08/20 00:06:21;;;;;;;9.80;9.00;;;;;;;26.95;51.23;99589.06;5017455;28;20190;-79
2023/08/20 00:08:48;;;;;;;11.20;10.23;;;;;;;27.00;51.60;99587.06;5012176;28;20644;-80
2023/08/20 00:11:15;;;;;;;10.97;9.97;;;;;;;26.94;51.89;99582.81;5012389;28;20248;-79
2023/08/20 00:13:42;;;;;;;11.27;10.37;;;;;;;26.93;52.18;99585.81;5012474;28;20256;-78
2023/08/20 00:16:10;;;;;;;12.10;10.60;;;;;;;26.85;52.20;99570.16;5011983;28;20198;-79
2023/08/20 00:18:38;;;;;;;10.30;9.40;;;;;;;26.75;53.04;99576.59;5012165;28;20584;-79
2023/08/20 00:21:05;;;;;;;11.07;10.27;;;;;;;26.70;53.56;99573.97;5025058;28;20212;-78
2023/08/20 00:23:34;;;;;;;11.90;10.20;;;;;;;26.60;53.40;99582.31;5036212;28;20304;-80
2023/08/20 00:26:02;;;;;;;10.70;9.87;;;;;;;26.51;53.18;99577.81;5035952;28;20193;-79
2023/08/20 00:28:28;;;;;;;11.20;10.20;;;;;;;26.58;53.50;99575.56;5035912;28;20224;-78
2023/08/20 00:30:55;;;;;;;11.23;10.23;;;;;;;26.49;52.79;99566.38;5035608;28;20290;-79
2023/08/20 00:33:22;;;;;;;10.70;9.90;;;;;;;26.17;53.29;99572.63;5036278;28;20193;-76
2023/08/20 00:35:48;;;;;;;10.60;9.70;;;;;;;25.97;53.74;99577.56;5033358;28;20251;-78
2023/08/20 00:38:15;;;;;;;10.27;9.03;;;;;;;25.86;54.51;99581.50;5035848;28;20217;-78
2023/08/20 00:40:43;;;;;;;10.67;9.77;;;;;;;25.92;54.32;99575.69;5035632;28;20196;-76
2023/08/20 00:43:10;;;;;;;10.13;9.37;;;;;;;26.05;54.45;99580.44;5036101;28;20194;-77
2023/08/20 00:45:37;;;;;;;9.83;9.13;;;;;;;26.17;53.76;99571.84;5036410;28;20190;-77
2023/08/20 00:48:06;;;;;;;10.43;9.60;;;;;;;26.27;53.33;99577.94;5035945;28;20247;-82
2023/08/20 00:50:34;;;;;;;10.70;9.60;;;;;;;26.35;52.61;99579.16;5020623;28;20194;-79
2023/08/20 00:53:02;;;;;;;9.73;8.70;;;;;;;26.33;53.18;99575.94;5016038;28;20228;-77
2023/08/20 00:55:29;;;;;;;9.93;9.13;;;;;;;26.25;53.16;99576.63;5015658;28;20253;-77
2023/08/20 00:57:57;;;;;;;10.33;9.43;;;;;;;26.17;52.84;99577.28;5015138;28;20221;-77
2023/08/20 01:00:25;;;;;;;11.30;9.63;;;;;;;25.99;53.87;99568.00;5015341;28;20272;-79
2023/08/20 01:02:51;;;;;;;10.27;9.27;;;;;;;26.00;53.71;99566.09;5015412;28;20198;-79
2023/08/20 01:05:18;;;;;;;10.80;9.73;;;;;;;26.06;53.27;99570.34;5031916;28;20579;-77
2023/08/20 01:07:58;;;;;;;9.83;8.80;;;;;;;26.14;53.70;99573.25;5022566;28;20193;-78
2023/08/20 01:10:34;;;;;;;10.47;9.47;;;;;;;26.25;53.12;99574.69;5014944;28;20232;-77
2023/08/20 01:13:04;;;;;;;10.37;8.83;;;;;;;26.32;52.93;99557.97;5015275;28;20186;-78
2023/08/20 01:15:30;;;;;;;10.23;9.43;;;;;;;26.38;52.06;99560.31;5014772;28;20194;-78
2023/08/20 01:17:57;;;;;;;10.43;9.37;;;;;;;26.37;52.48;99555.19;5018853;28;20287;-78
2023/08/20 01:20:27;;;;;;;9.30;8.60;;;;;;;26.34;52.91;99562.00;5034741;28;20267;-78
2023/08/20 01:23:29;;;;;;;10.30;9.40;;;;;;;26.32;52.79;99557.97;5034669;28;20641;-78
2023/08/20 01:26:20;;;;;;;10.40;9.33;;;;;;;26.30;52.65;99557.47;5029906;28;20201;-77
2023/08/20 01:28:48;;;;;;;9.77;8.73;;;;;;;26.29;53.05;99543.03;5034447;28;20252;-78
2023/08/20 01:31:16;;;;;;;9.33;8.63;;;;;;;26.32;52.87;99538.88;5033188;28;20283;-78
2023/08/20 01:33:43;;;;;;;9.93;9.17;;;;;;;26.37;52.75;99544.28;5016169;28;20189;-77
2023/08/20 01:36:10;;;;;;;9.80;8.97;;;;;;;26.44;52.94;99545.50;5014453;28;20263;-77
2023/08/20 01:38:37;;;;;;;10.87;9.93;;;;;;;26.49;52.23;99541.88;5014736;28;20316;-77
2023/08/20 01:41:04;;;;;;;9.73;8.93;;;;;;;26.54;51.92;99539.09;5014653;28;20193;-76
2023/08/20 01:43:31;;;;;;;11.83;9.20;;;;;;;26.54;51.67;99533.63;5014341;28;20190;-77
2023/08/20 01:45:59;;;;;;;13.03;10.03;;;;;;;26.54;51.65;99536.34;5015905;28;20658;-76
2023/08/20 01:48:25;;;;;;;10.20;9.40;;;;;;;26.47;52.38;99535.94;5034033;28;20255;-77
2023/08/20 01:50:52;;;;;;;13.80;9.80;;;;;;;26.47;51.98;99535.94;5033481;28;20197;-77
2023/08/20 01:53:20;;;;;;;10.80;9.77;;;;;;;26.42;52.75;99525.91;5034049;28;20643;-77
2023/08/20 01:55:46;;;;;;;10.93;9.50;;;;;;;26.41;52.42;99528.97;5034085;28;20293;-77
2023/08/20 01:58:13;;;;;;;10.33;9.43;;;;;;;26.36;52.88;99532.56;5033651;28;20225;-77
2023/08/20 02:00:40;;;;;;;11.27;10.13;;;;;;;26.32;52.83;99525.28;5014779;28;20737;-76
2023/08/20 02:03:08;;;;;;;12.50;9.73;;;;;;;26.37;52.47;99530.66;5014291;28;20206;-77
2023/08/20 02:05:34;;;;;;;10.87;9.87;;;;;;;26.39;53.28;99533.88;5014045;28;20190;-77
2023/08/20 02:08:02;;;;;;;10.43;9.53;;;;;;;26.38;53.21;99535.00;5028801;28;20193;-76
2023/08/20 02:10:28;;;;;;;10.33;9.23;;;;;;;26.35;53.20;99519.22;5033872;28;20205;-76
2023/08/20 02:12:55;;;;;;;11.03;10.00;;;;;;;26.46;52.95;99529.66;5015133;28;20232;-77
2023/08/20 02:15:23;;;;;;;10.07;9.23;;;;;;;26.49;52.51;99528.25;5013705;28;20662;-76
2023/08/20 02:17:52;;;;;;;10.87;9.77;;;;;;;26.49;52.13;99530.97;5013878;28;20665;-75
2023/08/20 02:20:22;;;;;;;10.30;9.30;;;;;;;26.47;51.96;99517.66;5013548;28;20674;-75
2023/08/20 02:22:49;;;;;;;9.80;9.00;;;;;;;26.53;51.87;99529.25;5014275;28;20194;-76
2023/08/20 02:25:16;;;;;;;10.10;9.17;;;;;;;26.54;52.04;99528.97;5016797;28;20239;-76
2023/08/20 02:27:43;;;;;;;10.30;9.23;;;;;;;26.54;52.04;99536.34;5033636;28;20189;-76
2023/08/20 02:30:13;;;;;;;9.87;8.97;;;;;;;26.53;51.52;99537.44;5033640;28;20201;-76
2023/08/20 02:32:40;;;;;;;13.07;9.40;;;;;;;26.49;52.13;99541.88;5033857;28;20244;-75
2023/08/20 02:35:07;;;;;;;9.57;8.87;;;;;;;26.50;51.85;99540.78;5033289;28;20251;-77
2023/08/20 02:37:36;;;;;;;12.43;9.07;;;;;;;26.43;51.86;99537.63;5033150;28;20669;-76
2023/08/20 02:40:04;;;;;;;9.13;8.13;;;;;;;26.37;52.55;99538.84;5024461;28;20272;-76
2023/08/20 02:42:31;;;;;;;9.00;8.20;;;;;;;26.30;52.60;99538.41;5013058;28;20631;-76
2023/08/20 02:44:57;;;;;;;9.50;8.63;;;;;;;26.32;52.32;99547.06;5013357;28;20256;-77
2023/08/20 02:47:25;;;;;;;9.47;8.50;;;;;;;26.23;52.87;99548.84;5014364;28;20194;-76
2023/08/20 02:49:52;;;;;;;9.17;8.43;;;;;;;26.27;52.70;99539.78;5012663;28;20672;-77
2023/08/20 02:52:19;;;;;;;8.67;8.07;;;;;;;26.32;52.85;99541.63;5013259;28;20285;-76
2023/08/20 02:54:47;;;;;;;9.43;8.47;;;;;;;26.31;52.12;99546.28;5013030;28;20198;-76
2023/08/20 02:57:13;;;;;;;7.97;7.37;;;;;;;26.29;51.47;99543.03;5013393;28;20577;-76
2023/08/20 02:59:40;;;;;;;10.70;7.90;;;;;;;26.25;52.09;99546.66;5013076;28;20226;-76
2023/08/20 03:02:07;;;;;;;9.30;8.03;;;;;;;26.17;52.71;99550.84;5013367;28;20260;-78
2023/08/20 03:04:34;;;;;;;8.63;7.33;;;;;;;26.11;52.72;99552.03;5013360;28;20226;-78
2023/08/20 03:07:01;;;;;;;9.87;7.30;;;;;;;26.13;52.48;99559.91;5018903;28;20200;-78
2023/08/20 03:09:28;;;;;;;8.03;7.33;;;;;;;26.16;52.59;99556.56;5032753;28;20267;-77
2023/08/20 03:11:56;;;;;;;8.60;7.87;;;;;;;26.15;52.48;99557.69;5038440;28;20200;-77
2023/08/20 03:14:22;;;;;;;8.10;7.37;;;;;;;26.14;52.70;99556.06;5046349;28;20207;-78
2023/08/20 03:16:49;;;;;;;13.53;7.30;;;;;;;26.20;52.96;99554.88;5032141;28;20239;-78
2023/08/20 03:19:16;;;;;;;7.60;6.97;;;;;;;26.22;51.80;99558.13;5032956;28;20221;-79
2023/08/20 03:21:43;;;;;;;7.77;7.10;;;;;;;26.21;52.07;99561.97;5032935;28;20712;-77
2023/08/20 03:24:10;;;;;;;8.03;6.87;;;;;;;26.28;52.52;99562.38;5033529;28;20189;-78
2023/08/20 03:26:36;;;;;;;8.60;6.20;;;;;;;26.30;51.79;99549.28;5033241;28;20193;-76
2023/08/20 03:29:05;;;;;;;8.70;7.43;;;;;;;26.32;50.99;99555.22;5027822;28;20260;-76
2023/08/20 03:31:32;;;;;;;7.90;7.20;;;;;;;26.27;51.88;99558.88;5013671;28;20267;-77
2023/08/20 03:33:59;;;;;;;7.97;7.17;;;;;;;26.24;52.18;99558.63;5012618;28;20744;-77
2023/08/20 03:36:26;;;;;;;6.93;6.43;;;;;;;26.26;52.12;99559.97;5012429;28;20663;-77
2023/08/20 03:38:52;;;;;;;7.87;7.07;;;;;;;26.29;52.44;99558.56;5012279;28;20233;-77
2023/08/20 03:41:19;;;;;;;7.77;7.17;;;;;;;26.30;52.20;99552.00;5012494;28;20190;-76
2023/08/20 03:43:45;;;;;;;8.17;7.30;;;;;;;26.33;52.74;99543.25;5013073;28;20616;-76
2023/08/20 03:46:14;;;;;;;7.63;6.90;;;;;;;26.40;52.17;99549.94;5012463;28;20729;-77
2023/08/20 03:48:40;;;;;;;8.53;6.90;;;;;;;26.42;51.97;99546.91;5012205;28;20198;-76
2023/08/20 03:51:07;;;;;;;6.70;6.27;;;;;;;26.40;52.28;99544.47;5012425;28;20194;-76
2023/08/20 03:53:34;;;;;;;9.43;7.63;;;;;;;26.51;51.72;99551.38;5011914;28;20194;-76
2023/08/20 03:56:00;;;;;;;7.50;7.00;;;;;;;26.56;51.84;99558.66;5028848;28;20201;-78
2023/08/20 03:58:27;;;;;;;7.37;6.80;;;;;;;26.59;51.96;99558.09;5031708;28;20283;-78
2023/08/20 04:00:53;;;;;;;7.37;6.67;;;;;;;26.57;51.98;99554.81;5045280;28;20242;-78
2023/08/20 04:03:22;;;;;;;7.60;7.00;;;;;;;26.61;51.59;99564.88;5051604;28;20193;-76
2023/08/20 04:05:50;;;;;;;7.17;6.57;;;;;;;26.55;50.66;99548.88;5051530;28;20193;-82
2023/08/20 04:08:17;;;;;;;8.13;7.33;;;;;;;26.60;51.52;99560.53;5033875;28;20209;-78
2023/08/20 04:10:45;;;;;;;7.47;6.97;;;;;;;26.49;50.70;99548.13;5012008;28;20280;-80
2023/08/20 04:13:13;;;;;;;7.47;6.37;;;;;;;26.50;50.89;99559.84;5011860;28;20198;-80
2023/08/20 04:15:40;;;;;;;7.67;6.23;;;;;;;26.51;51.52;99565.00;5011864;28;20548;-79
2023/08/20 04:18:07;;;;;;;6.50;6.00;;;;;;;26.57;51.62;99563.81;5012139;28;20248;-80
2023/08/20 04:20:35;;;;;;;6.67;6.13;;;;;;;26.65;51.54;99559.59;5012144;28;20214;-79
2023/08/20 04:23:02;;;;;;;6.57;6.10;;;;;;;26.71;51.23;99558.44;5016817;28;20197;-80
2023/08/20 04:25:28;;;;;;;7.83;7.10;;;;;;;26.79;50.90;99571.38;5031860;28;20265;-78
2023/08/20 04:27:55;;;;;;;6.93;6.33;;;;;;;26.78;50.93;99569.75;5050045;28;20193;-78
2023/08/20 04:30:22;;;;;;;7.97;6.60;;;;;;;26.75;51.10;99567.63;5052102;28;20250;-78
2023/08/20 04:32:48;;;;;;;8.33;6.93;;;;;;;26.72;51.15;99570.94;5051937;28;20232;-77
2023/08/20 04:35:15;;;;;;;8.93;7.13;;;;;;;26.71;50.82;99572.84;5051357;28;20193;-77
2023/08/20 04:37:43;;;;;;;7.03;6.40;;;;;;;26.69;50.86;99568.81;5040678;28;20657;-77
2023/08/20 04:40:12;;;;;;;9.13;6.50;;;;;;;26.61;50.78;99567.59;5031237;28;20232;-75
2023/08/20 04:42:38;;;;;;;11.20;6.57;;;;;;;26.49;52.18;99574.56;5031262;28;20636;-76
2023/08/20 04:45:06;;;;;;;14.70;7.33;;;;;;;26.52;51.74;99572.06;5031703;28;20193;-76
2023/08/20 04:47:33;;;;;;;41.80;8.77;;;;;;;26.61;51.79;99577.66;5018248;28;20548;-77
2023/08/20 04:49:59;;;;;;;19.60;7.50;;;;;;;26.66;51.07;99570.22;5011845;28;20198;-60
2023/08/20 04:52:26;;;;;;;10.73;6.63;;;;;;;26.84;50.76;99576.72;5011672;28;20248;-61
2023/08/20 04:54:54;;;;;;;9.47;7.30;;;;;;;27.01;50.40;99576.97;5011576;28;20252;-62
2023/08/20 04:57:21;;;;;;;24.90;7.33;;;;;;;27.18;49.47;99577.16;5011141;28;20257;-62
2023/08/20 04:59:48;;;;;;;19.30;7.27;;;;;;;27.33;49.34;99576.91;5021606;28;20225;-62
2023/08/20 05:02:14;;;;;;;21.33;7.23;;;;;;;27.48;48.61;99577.41;5025694;28;20191;-63
2023/08/20 05:04:41;;;;;;;20.07;7.00;;;;;;;27.60;47.95;99579.66;5011562;28;20568;-62
2023/08/20 05:07:08;;;;;;;16.13;7.70;;;;;;;27.64;47.77;99580.66;5021825;28;20684;-62
2023/08/20 05:09:35;;;;;;;18.03;6.70;;;;;;;27.68;47.40;99579.72;5034848;28;20201;-63
2023/08/20 05:12:04;;;;;;;12.63;6.77;;;;;;;27.75;47.45;99580.13;5032349;28;20244;-63
2023/08/20 05:14:31;;;;;;;10.20;6.10;;;;;;;27.80;47.38;99584.66;5033907;28;20189;-64
2023/08/20 05:16:58;;;;;;;16.30;7.23;;;;;;;27.78;46.94;99575.97;5034007;28;20189;-63
2023/08/20 05:19:24;;;;;;;11.77;6.77;;;;;;;27.95;47.22;99593.38;5033083;28;20220;-65
2023/08/20 05:21:52;;;;;;;12.10;6.90;;;;;;;27.94;46.67;99599.13;5034428;28;20189;-63
2023/08/20 05:24:19;;;;;;;9.60;6.27;;;;;;;27.95;46.71;99603.47;5034377;28;20198;-62
2023/08/20 05:26:46;;;;;;;11.23;6.20;;;;;;;27.96;46.87;99603.16;5034560;28;20271;-62
2023/08/20 05:29:14;;;;;;;7.27;6.50;;;;;;;27.94;46.68;99612.78;5031502;28;20201;-63
2023/08/20 05:31:40;;;;;;;7.07;6.47;;;;;;;27.99;46.80;99604.47;5036641;28;20713;-64
2023/08/20 05:34:07;;;;;;;7.20;6.70;;;;;;;28.08;46.66;99608.09;5032750;28;20665;-65
2023/08/20 05:36:34;;;;;;;11.80;7.73;;;;;;;28.14;46.42;99612.34;5031613;28;20746;-65
2023/08/20 05:39:00;;;;;;;8.00;7.30;;;;;;;28.14;46.77;99607.66;5031406;28;20955;-65
2023/08/20 05:41:27;;;;;;;8.17;7.47;;;;;;;28.16;46.73;99605.44;5016713;28;20580;-65
2023/08/20 05:43:54;;;;;;;10.53;8.17;;;;;;;28.13;47.23;99608.00;5022522;28;20287;-65
2023/08/20 05:46:22;;;;;;;8.83;8.00;;;;;;;28.05;47.41;99604.06;5030739;28;20193;-64
2023/08/20 05:48:48;;;;;;;7.73;7.17;;;;;;;28.12;47.21;99606.34;5031177;28;20754;-65
2023/08/20 05:51:15;;;;;;;7.50;6.70;;;;;;;28.17;47.07;99607.06;5031084;28;20255;-65
2023/08/20 05:53:42;;;;;;;7.70;7.17;;;;;;;28.28;47.03;99610.34;5015786;28;20205;-64
2023/08/20 05:56:09;;;;;;;8.60;7.63;;;;;;;28.40;46.74;99618.81;5010382;28;20201;-63
2023/08/20 05:58:35;;;;;;;9.27;8.07;;;;;;;28.55;46.31;99618.50;5010522;28;20201;-65
2023/08/20 06:01:02;;;;;;;9.07;8.07;;;;;;;28.73;46.10;99615.56;5009428;28;20222;-64
2023/08/20 06:03:30;;;;;;;10.53;7.70;;;;;;;28.92;45.33;99607.16;5009165;28;20272;-64
2023/08/20 06:05:58;;;;;;;9.03;8.17;;;;;;;28.92;45.70;99618.09;5007434;28;20207;-65
2023/08/20 06:08:24;;;;;;;9.13;7.97;;;;;;;28.87;45.34;99620.97;5025350;28;20193;-64
2023/08/20 06:10:51;;;;;;;9.50;8.50;;;;;;;28.76;46.28;99620.44;5027597;28;20673;-65
2023/08/20 06:13:18;;;;;;;15.53;8.80;;;;;;;28.90;45.64;99609.41;5030137;28;20634;-64
2023/08/20 06:15:45;;;;;;;10.97;8.50;;;;;;;28.91;46.26;99620.03;5030067;28;20247;-64
2023/08/20 06:18:11;;;;;;;12.60;9.20;;;;;;;28.92;45.68;99623.59;5016580;28;20248;-63
2023/08/20 06:20:39;;;;;;;15.03;9.00;;;;;;;28.87;46.14;99626.44;5029406;28;20438;-63
2023/08/20 06:23:06;;;;;;;11.63;8.67;;;;;;;28.82;45.99;99623.81;5031460;28;20716;-64
2023/08/20 06:25:33;;;;;;;8.77;7.93;;;;;;;28.72;45.87;99621.34;5030275;28;20269;-66
2023/08/20 06:28:00;;;;;;;8.87;8.00;;;;;;;28.68;46.70;99617.63;5031825;28;20255;-66
2023/08/20 06:30:26;;;;;;;9.97;8.10;;;;;;;28.89;46.48;99624.19;5032088;28;20232;-65
2023/08/20 06:32:53;;;;;;;8.73;7.93;;;;;;;29.00;45.29;99625.59;5031195;28;20205;-65
2023/08/20 06:35:20;;;;;;;10.40;8.53;;;;;;;29.11;45.40;99621.44;5031432;28;20263;-65
2023/08/20 06:37:48;;;;;;;19.67;8.60;;;;;;;29.16;45.36;99624.06;5025427;28;20256;-66
2023/08/20 06:40:14;;;;;;;14.50;8.63;;;;;;;29.36;44.95;99629.00;5011095;28;20222;-64
2023/08/20 06:42:41;;;;;;;25.57;9.67;;;;;;;29.72;44.09;99626.09;5011410;28;20737;-72
2023/08/20 06:45:09;;;;;;;15.60;7.97;;;;;;;29.94;43.38;99626.78;5013100;28;20194;-72
2023/08/20 06:47:35;;;;;;;15.47;8.37;;;;;;;30.02;42.70;99630.66;5012928;28;20194;-73
2023/08/20 06:50:03;;;;;;;11.83;8.20;;;;;;;30.07;42.85;99642.28;5016803;28;20552;-74
2023/08/20 06:52:30;;;;;;;10.50;8.33;;;;;;;30.22;43.04;99636.38;5032672;28;20251;-74
2023/08/20 06:54:58;;;;;;;10.07;7.83;;;;;;;30.28;42.10;99632.34;5032407;28;20193;-74
2023/08/20 06:57:24;;;;;;;8.53;7.70;;;;;;;30.29;42.08;99625.72;5031541;28;20251;-73
2023/08/20 06:59:51;;;;;;;10.30;7.93;;;;;;;30.41;42.26;99634.13;5032387;28;20274;-73
2023/08/20 07:02:18;;;;;;;8.33;7.63;;;;;;;30.55;41.50;99637.53;5025585;28;20241;-73
2023/08/20 07:04:44;;;;;;;9.33;8.43;;;;;;;30.72;41.55;99648.50;5012336;28;20194;-74
2023/08/20 07:07:11;;;;;;;9.80;8.50;;;;;;;30.80;41.20;99631.22;5018510;28;20276;-74
2023/08/20 07:09:39;;;;;;;11.73;8.30;;;;;;;30.96;40.99;99640.56;5031266;28;20692;-75
2023/08/20 07:12:07;;;;;;;8.40;7.90;;;;;;;30.91;41.59;99642.66;5031961;28;20263;-74
2023/08/20 07:14:34;;;;;;;12.37;8.57;;;;;;;31.09;41.43;99642.31;5025910;28;20198;-74
2023/08/20 07:17:02;;;;;;;8.67;7.87;;;;;;;31.48;41.02;99633.78;5012146;28;20198;-74
2023/08/20 07:19:29;;;;;;;9.17;8.43;;;;;;;31.80;39.85;99633.19;5011624;28;20868;-74
2023/08/20 07:21:56;;;;;;;9.60;8.67;;;;;;;31.87;39.62;99638.16;5012541;28;20202;-75
2023/08/20 07:24:25;;;;;;;8.70;8.00;;;;;;;31.85;38.87;99630.22;5012056;28;20670;-75
2023/08/20 07:26:52;;;;;;;9.53;8.63;;;;;;;32.19;38.20;99638.28;5016718;28;20221;-74
2023/08/20 07:29:20;;;;;;;9.30;8.43;;;;;;;32.53;37.38;99639.97;5031156;28;20193;-75
2023/08/20 07:31:47;;;;;;;10.33;7.73;;;;;;;32.59;36.36;99631.16;5032154;28;20232;-76
2023/08/20 07:34:14;;;;;;;10.73;7.73;;;;;;;32.92;36.35;99639.47;5031947;28;20197;-75
2023/08/20 07:36:40;;;;;;;10.23;7.70;;;;;;;33.33;35.83;99637.41;5015254;28;20193;-75
2023/08/20 07:39:08;;;;;;;8.25;7.45;;;;;;;33.68;34.80;99643.28;5011770;28;20248;-76
2023/08/20 07:41:35;;;;;;;8.40;7.70;;;;;;;33.95;34.46;99644.56;5012105;28;20237;-78
2023/08/20 07:44:01;;;;;;;8.27;7.55;;;;;;;34.19;33.60;99639.84;5011702;28;20190;-74
2023/08/20 07:46:30;;;;;;;8.65;7.88;;;;;;;34.40;33.78;99650.72;5011998;28;20194;-75
2023/08/20 07:48:57;;;;;;;21.85;8.60;;;;;;;34.72;33.05;99645.00;5028399;28;20239;-74
2023/08/20 07:51:23;;;;;;;8.20;7.53;;;;;;;34.86;33.08;99639.09;5031793;28;20193;-74
2023/08/20 07:53:50;;;;;;;7.63;7.00;;;;;;;34.65;32.33;99622.69;5031552;28;20201;-74
2023/08/20 07:56:17;;;;;;;8.25;7.60;;;;;;;34.69;32.79;99639.34;5031249;28;20247;-74
2023/08/20 07:58:43;;;;;;;7.82;7.30;;;;;;;34.47;32.65;99632.44;5031082;28;20255;-74
2023/08/20 08:01:10;;;;;;;9.93;7.72;;;;;;;34.79;32.56;99633.34;5013811;28;20642;-75
2023/08/20 08:03:38;;;;;;;7.47;6.88;;;;;;;34.92;32.48;99634.91;5011533;28;20198;-75
2023/08/20 08:06:05;;;;;;;7.32;6.63;;;;;;;35.23;31.95;99632.22;5011507;28;20198;-75
2023/08/20 08:08:31;;;;;;;10.43;7.07;;;;;;;35.60;31.26;99628.84;5030044;28;20247;-73
2023/08/20 08:10:58;;;;;;;7.03;6.53;;;;;;;35.86;31.35;99631.06;5031105;28;20197;-73
2023/08/20 08:13:25;;;;;;;6.93;6.40;;;;;;;36.06;30.43;99632.72;5014368;28;20251;-72
2023/08/20 08:15:52;;;;;;;7.38;6.68;;;;;;;36.22;29.21;99622.44;5011340;28;20237;-73
2023/08/20 08:18:19;;;;;;;6.90;6.60;;;;;;;35.71;30.02;99623.56;5011347;28;20730;-73
2023/08/20 08:20:47;;;;;;;6.68;6.05;;;;;;;35.41;30.73;99625.19;5011516;28;20279;-73
2023/08/20 08:23:14;;;;;;;7.38;6.78;;;;;;;35.53;30.30;99619.56;5011225;28;20194;-73
2023/08/20 08:25:41;;;;;;;8.52;6.68;;;;;;;35.92;30.43;99615.78;5027318;28;20766;-72
2023/08/20 08:28:07;;;;;;;11.00;6.50;;;;;;;36.16;28.89;99615.53;5031129;28;20589;-75
2023/08/20 08:30:34;;;;;;;6.35;5.85;;;;;;;36.06;28.68;99622.47;5031070;28;20243;-72
2023/08/20 08:33:01;;;;;;;6.68;6.22;;;;;;;36.26;28.78;99617.78;5031494;28;20197;-72
2023/08/20 08:35:28;;;;;;;6.50;5.72;;;;;;;36.23;28.77;99621.28;5031129;28;20189;-72
2023/08/20 08:37:57;;;;;;;5.28;4.97;;;;;;;36.41;27.87;99619.66;5014045;28;20260;-72
2023/08/20 08:40:28;;;;;;;5.63;5.32;;;;;;;36.28;28.54;99616.25;5012315;28;20697;-72
2023/08/20 08:42:55;;;;;;;6.28;5.78;;;;;;;36.47;28.18;99615.47;5015386;28;20186;-73
2023/08/20 08:45:22;;;;;;;6.63;5.38;;;;;;;36.64;28.75;99613.06;5014772;28;20206;-72
2023/08/20 08:47:50;;;;;;;5.75;5.40;;;;;;;36.77;28.37;99610.94;5015218;28;20301;-72
2023/08/20 08:50:17;;;;;;;8.23;5.30;;;;;;;36.74;27.10;99615.25;5030970;28;20193;-72
2023/08/20 08:52:47;;;;;;;5.53;5.10;;;;;;;36.54;27.64;99618.38;5034983;28;20628;-73
2023/08/20 08:55:15;;;;;;;5.15;4.70;;;;;;;36.40;27.60;99618.88;5034997;28;20231;-72
2023/08/20 08:57:42;;;;;;;5.10;4.80;;;;;;;36.36;27.88;99620.78;5034377;28;20255;-71
2023/08/20 09:00:09;;;;;;;6.15;5.65;;;;;;;36.43;27.80;99600.75;5034737;28;20275;-72
2023/08/20 09:02:36;;;;;;;5.55;5.25;;;;;;;36.64;27.44;99610.28;5016085;28;20244;-71
2023/08/20 09:05:03;;;;;;;6.07;5.72;;;;;;;36.78;27.99;99609.78;5014384;28;20194;-72
2023/08/20 09:07:29;;;;;;;5.75;5.35;;;;;;;36.70;27.42;99610.84;5024870;28;20197;-72
2023/08/20 09:10:00;;;;;;;5.68;5.32;;;;;;;36.60;28.03;99600.31;5034148;28;20197;-72
2023/08/20 09:12:28;;;;;;;6.72;5.55;;;;;;;36.75;27.47;99605.00;5034183;28;20244;-72
2023/08/20 09:15:00;;;;;;;6.18;5.68;;;;;;;37.06;26.59;99607.53;5015047;28;20198;-72
2023/08/20 09:17:27;;;;;;;5.55;5.00;;;;;;;37.15;27.12;99606.16;5014122;28;20272;-73
2023/08/20 09:19:57;;;;;;;5.95;5.63;;;;;;;37.14;26.71;99601.00;5014396;28;20248;-73
2023/08/20 09:22:24;;;;;;;6.03;5.35;;;;;;;37.20;26.69;99599.53;5014101;28;20194;-72
2023/08/20 09:24:55;;;;;;;6.90;5.22;;;;;;;37.32;26.37;99596.56;5014685;28;20190;-73
2023/08/20 09:27:21;;;;;;;6.13;5.55;;;;;;;37.36;26.43;99602.97;5033129;28;20213;-76
2023/08/20 09:29:51;;;;;;;5.20;4.80;;;;;;;37.41;25.17;99601.84;5034080;28;20240;-75
2023/08/20 09:32:19;;;;;;;4.72;4.45;;;;;;;37.45;25.04;99599.94;5034355;28;20230;-75
2023/08/20 09:34:48;;;;;;;4.97;4.72;;;;;;;37.38;24.52;99599.81;5047917;28;20583;-75
2023/08/20 09:37:16;;;;;;;4.72;4.43;;;;;;;37.32;25.20;99591.03;5052353;28;20219;-74
2023/08/20 09:39:43;;;;;;;5.60;5.07;;;;;;;37.30;25.24;99596.13;5033366;28;20205;-74
2023/08/20 09:42:11;;;;;;;7.68;5.07;;;;;;;37.26;24.51;99589.72;5034154;28;20220;-75
2023/08/20 09:44:39;;;;;;;6.55;5.00;;;;;;;37.25;25.28;99588.13;5034241;28;20223;-75
2023/08/20 09:47:09;;;;;;;5.50;5.00;;;;;;;37.37;25.39;99582.38;5021290;28;20194;-75
2023/08/20 09:49:40;;;;;;;4.90;4.50;;;;;;;37.49;25.92;99571.09;5014217;28;20252;-75
2023/08/20 09:52:08;;;;;;;5.20;4.72;;;;;;;37.64;24.90;99581.25;5012977;28;20728;-75
2023/08/20 09:54:51;;;;;;;4.85;4.45;;;;;;;37.76;24.24;99571.94;5014302;28;20191;-75
2023/08/20 09:57:28;;;;;;;4.70;4.38;;;;;;;37.92;24.35;99570.56;5013730;28;20197;-75
2023/08/20 09:59:56;;;;;;;5.22;4.72;;;;;;;37.61;24.93;99568.16;5029955;28;20217;-75
2023/08/20 10:02:25;;;;;;;5.25;4.53;;;;;;;37.35;25.45;99559.75;5032722;28;20221;-75
2023/08/20 10:04:53;;;;;;;5.25;4.95;;;;;;;37.15;26.10;99559.06;5033004;28;20251;-75
2023/08/20 10:07:21;;;;;;;10.18;5.00;;;;;;;37.13;25.88;99550.31;5024617;28;20202;-76
2023/08/20 10:09:50;;;;;;;5.05;4.72;;;;;;;37.07;25.85;99550.97;5013736;28;20201;-75
2023/08/20 10:12:17;;;;;;;5.20;4.78;;;;;;;36.95;25.50;99556.69;5014682;28;20277;-75
2023/08/20 10:14:44;;;;;;;4.80;4.60;;;;;;;36.73;25.85;99558.28;5033160;28;20255;-75
2023/08/20 10:17:15;;;;;;;4.70;4.03;;;;;;;36.91;25.71;99555.84;5033133;28;20205;-75
2023/08/20 10:19:43;;;;;;;5.47;4.70;;;;;;;37.06;25.20;99549.34;5033537;28;20268;-76
2023/08/20 10:22:10;;;;;;;5.32;5.00;;;;;;;37.27;26.12;99544.19;5033212;28;20308;-75
2023/08/20 10:24:49;;;;;;;5.25;4.72;;;;;;;37.53;25.28;99551.72;5033051;28;20572;-75
2023/08/20 10:27:28;;;;;;;4.40;4.00;;;;;;;37.49;25.17;99548.91;5023755;28;20269;-75
2023/08/20 10:29:55;;;;;;;5.10;4.80;;;;;;;37.40;25.03;99536.50;5013264;28;20190;-75
2023/08/20 10:32:45;;;;;;;4.68;4.32;;;;;;;37.42;24.80;99539.66;5025510;28;20245;-75
2023/08/20 10:35:14;;;;;;;4.97;4.57;;;;;;;37.54;24.84;99537.50;5032832;28;20221;-75
2023/08/20 10:38:06;;;;;;;5.10;4.75;;;;;;;37.41;24.97;99533.34;5032929;28;20671;-75
2023/08/20 10:40:49;;;;;;;4.90;4.50;;;;;;;37.32;25.28;99521.72;5029283;28;20193;-75
2023/08/20 10:43:27;;;;;;;6.05;4.50;;;;;;;37.22;25.37;99516.00;5013207;28;20244;-76
2023/08/20 10:46:14;;;;;;;5.35;4.93;;;;;;;37.22;25.56;99519.56;5013101;28;20186;-75
2023/08/20 10:48:41;;;;;;;5.57;5.03;;;;;;;37.21;25.23;99512.44;5013949;28;20194;-75
2023/08/20 10:51:11;;;;;;;5.10;4.80;;;;;;;37.02;25.53;99515.25;5032694;28;20201;-75
2023/08/20 10:53:39;;;;;;;5.30;4.80;;;;;;;37.21;25.99;99523.53;5032480;28;20193;-75
2023/08/20 10:56:13;;;;;;;5.00;4.57;;;;;;;37.16;25.11;99515.53;5017080;28;20206;-74
2023/08/20 10:58:42;;;;;;;5.03;4.63;;;;;;;36.91;26.55;99511.50;5013159;28;20186;-74
2023/08/20 11:01:19;;;;;;;7.93;5.00;;;;;;;37.05;25.81;99503.44;5012823;28;20249;-74
2023/08/20 11:03:48;;;;;;;4.82;4.50;;;;;;;37.08;25.09;99513.78;5012817;28;20213;-74
2023/08/20 11:06:15;;;;;;;5.13;4.70;;;;;;;36.92;25.44;99515.88;5012679;28;20201;-74
2023/08/20 11:08:44;;;;;;;5.38;4.68;;;;;;;36.93;25.60;99500.84;5013035;28;20252;-73
2023/08/20 11:11:12;;;;;;;5.60;5.03;;;;;;;36.97;25.21;99498.94;5012251;28;20256;-74
2023/08/20 11:13:39;;;;;;;7.50;4.65;;;;;;;37.03;25.96;99494.69;5012345;28;20667;-74
2023/08/20 11:16:07;;;;;;;4.75;4.35;;;;;;;37.11;25.60;99485.34;5012517;28;20658;-74
2023/08/20 11:18:34;;;;;;;4.72;4.53;;;;;;;36.96;26.03;99489.81;5012355;28;20194;-73
2023/08/20 11:21:02;;;;;;;5.10;4.70;;;;;;;36.99;25.25;99494.63;5012353;28;20324;-73
2023/08/20 11:23:29;;;;;;;5.25;4.85;;;;;;;36.87;25.08;99488.50;5018065;28;20195;-74
2023/08/20 11:25:57;;;;;;;5.00;4.70;;;;;;;36.97;26.22;99482.31;5032150;28;20756;-73
2023/08/20 11:28:26;;;;;;;5.28;4.78;;;;;;;36.80;25.80;99469.78;5032219;28;20201;-74
2023/08/20 11:30:55;;;;;;;4.93;4.55;;;;;;;36.85;26.15;99480.53;5031751;28;20297;-73
2023/08/20 11:33:22;;;;;;;5.10;4.65;;;;;;;36.91;26.02;99464.41;5031927;28;20194;-73